LETM weather

Sant Martí De Sescorts Heliport
Catalonia, Spain

Public forecast

Using degrees Celsius for public forecast. Weather courtesy of forecast.io.

METAR (pilot weather report)

Closest report is Girona Airport, 20.9 nm (38.6 km) ESE. Retrieved 2019/09/21 01:30 UTC (1 minute ago):

LEGE 210130Z 04003KT 010V070 9999 FEW016 BKN025 18/17 Q1017

TAF (pilot weather forecast)

Forecast is more than 12 hours old.

Closest forecast is Girona Airport, 20.9 nm (38.6 km) ESE. Retrieved 2019/09/20 00:27 UTC (1 day ago):

TAF LEGE 202300Z 2100/2124 36005KT 9999 BKN020 TX23/2113Z TN16/2106Z TEMPO 2103/2119 3000 TSRA BKN010 SCT020CB PROB40 TEMPO 2108/2118 02010G20KT 2000 +TSRA BKN008 SCT020CB